createdAt,value
2019-01-10T00:01:46.557Z,5.83
2019-01-10T00:04:35.810Z,4.43
2019-01-10T00:07:16.240Z,5.00
2019-01-10T00:10:06.581Z,5.13
2019-01-10T00:12:48.319Z,5.23
2019-01-10T00:15:31.723Z,4.50
2019-01-10T00:18:13.306Z,4.33
2019-01-10T00:20:55.268Z,5.33
2019-01-10T00:23:37.078Z,5.33
2019-01-10T00:26:19.385Z,5.40
2019-01-10T00:29:00.809Z,5.37
2019-01-10T00:31:42.412Z,5.47
2019-01-10T00:34:22.599Z,5.33
2019-01-10T00:37:12.037Z,4.70
2019-01-10T00:39:53.432Z,5.90
2019-01-10T00:42:35.840Z,5.80
2019-01-10T00:45:17.209Z,5.63
2019-01-10T00:48:06.610Z,5.63
2019-01-10T00:50:48.571Z,5.83
2019-01-10T00:53:30.125Z,5.30
2019-01-10T00:56:11.728Z,5.77
2019-01-10T00:58:53.801Z,6.77
2019-01-10T01:01:35.169Z,6.00
2019-01-10T01:04:16.973Z,5.47
2019-01-10T01:06:58.581Z,5.90
2019-01-10T01:09:40.659Z,5.87
2019-01-10T01:12:22.155Z,5.30
2019-01-10T01:15:03.838Z,5.07
2019-01-10T01:17:45.624Z,5.97
2019-01-10T01:20:25.837Z,5.53
2019-01-10T01:23:07.291Z,5.67
2019-01-10T01:25:48.984Z,6.33
2019-01-10T01:28:29.326Z,6.00
2019-01-10T01:31:10.944Z,4.90
2019-01-10T01:33:52.289Z,6.13
2019-01-10T01:36:34.618Z,6.47
2019-01-10T01:39:16.256Z,4.97
2019-01-10T01:41:58.804Z,5.20
2019-01-10T01:44:40.592Z,6.17
2019-01-10T01:47:21.938Z,5.57
2019-01-10T01:50:04.096Z,6.13
2019-01-10T01:52:45.790Z,5.20
2019-01-10T01:55:27.195Z,5.80
2019-01-10T01:58:09.179Z,5.80
2019-01-10T02:00:50.787Z,5.80
2019-01-10T02:03:32.110Z,6.00
2019-01-10T02:06:13.853Z,5.70
2019-01-10T02:08:57.787Z,5.50
2019-01-10T02:11:38.726Z,5.63
2019-01-10T02:14:20.741Z,5.97
2019-01-10T02:17:03.371Z,5.63
2019-01-10T02:19:49.939Z,6.37
2019-01-10T02:22:32.043Z,5.80
2019-01-10T02:25:02.586Z,6.13
2019-01-10T02:27:52.070Z,5.93
2019-01-10T02:30:42.440Z,5.90
2019-01-10T02:36:05.553Z,5.70
2019-01-10T02:38:37.007Z,5.43
2019-01-10T02:41:07.363Z,5.93
2019-01-10T02:43:37.859Z,5.80
2019-01-10T02:46:26.683Z,4.93
2019-01-10T02:49:19.270Z,5.90
2019-01-10T02:52:08.634Z,5.50
2019-01-10T02:57:22.159Z,6.30
2019-01-10T03:02:49.113Z,6.23
2019-01-10T03:05:19.654Z,6.67
2019-01-10T03:07:50.018Z,6.83
2019-01-10T03:10:39.286Z,7.27
2019-01-10T03:13:20.917Z,7.63
2019-01-10T03:16:02.093Z,7.73
2019-01-10T03:18:51.824Z,6.97
2019-01-10T03:21:35.613Z,7.13
2019-01-10T03:24:05.756Z,7.17
2019-01-10T03:26:55.255Z,7.67
2019-01-10T03:29:44.489Z,7.30
2019-01-10T03:32:33.815Z,7.20
2019-01-10T03:38:25.592Z,6.97
2019-01-10T03:41:07.173Z,7.53
2019-01-10T03:46:30.315Z,7.40
2019-01-10T03:49:19.768Z,7.00
2019-01-10T03:52:01.271Z,7.17
2019-01-10T03:54:42.879Z,7.07
2019-01-10T03:57:24.649Z,6.67
2019-01-10T04:00:05.998Z,6.90
2019-01-10T04:02:36.298Z,7.97
2019-01-10T04:05:25.533Z,8.10
2019-01-10T04:08:15.269Z,7.73
2019-01-10T04:10:58.449Z,8.20
2019-01-10T04:13:39.989Z,8.77
2019-01-10T04:16:21.929Z,8.20
2019-01-10T04:19:03.972Z,7.83
2019-01-10T04:21:45.779Z,7.50
2019-01-10T04:24:17.261Z,8.20
2019-01-10T04:26:48.440Z,8.90
2019-01-10T04:29:50.041Z,8.60
2019-01-10T04:32:19.688Z,8.23
2019-01-10T04:35:01.286Z,8.73
2019-01-10T04:37:43.252Z,7.17
2019-01-10T04:43:17.441Z,8.20
2019-01-10T04:45:59.142Z,8.10
2019-01-10T04:48:39.193Z,8.57
2019-01-10T04:51:28.571Z,8.13
2019-01-10T04:54:10.515Z,8.23
2019-01-10T04:56:51.692Z,8.53
2019-01-10T04:59:31.668Z,8.37
2019-01-10T05:02:21.214Z,8.90
2019-01-10T05:04:51.742Z,8.40
2019-01-10T05:07:23.789Z,8.87
2019-01-10T05:09:56.724Z,8.87
2019-01-10T05:12:46.324Z,8.37
2019-01-10T05:15:36.007Z,9.13
2019-01-10T05:18:08.195Z,8.90
2019-01-10T05:20:57.570Z,9.07
2019-01-10T05:23:46.821Z,9.37
2019-01-10T05:26:17.261Z,9.13
2019-01-10T05:28:47.481Z,9.40
2019-01-10T05:31:17.963Z,10.23
2019-01-10T05:33:48.508Z,9.67
2019-01-10T05:36:19.266Z,10.00
2019-01-10T05:38:49.513Z,9.10
2019-01-10T05:41:20.256Z,11.37
2019-01-10T05:43:50.394Z,9.70
2019-01-10T05:46:48.274Z,10.23
2019-01-10T05:49:31.047Z,10.37
2019-01-10T05:52:12.559Z,10.37
2019-01-10T05:54:54.860Z,8.47
2019-01-10T05:57:35.056Z,10.00
2019-01-10T06:00:06.685Z,9.70
2019-01-10T06:02:56.122Z,9.40
2019-01-10T06:05:26.741Z,9.97
2019-01-10T06:07:57.180Z,11.13
2019-01-10T06:10:28.929Z,9.93
2019-01-10T06:13:18.188Z,10.40
2019-01-10T06:18:48.980Z,9.77
2019-01-10T06:21:28.695Z,10.17
2019-01-10T06:24:00.243Z,9.70
2019-01-10T06:26:30.977Z,9.93
2019-01-10T06:29:01.560Z,10.30
2019-01-10T06:31:33.231Z,10.03
2019-01-10T06:34:03.928Z,9.50
2019-01-10T06:36:34.176Z,10.23
2019-01-10T06:39:06.874Z,10.27
2019-01-10T06:41:56.167Z,9.80
2019-01-10T06:44:26.985Z,10.30
2019-01-10T06:46:57.182Z,9.87
2019-01-10T06:49:46.460Z,10.53
2019-01-10T06:52:35.666Z,9.70
2019-01-10T06:55:16.955Z,10.50
2019-01-10T06:57:47.169Z,10.63
2019-01-10T07:00:37.758Z,10.03
2019-01-10T07:03:08.088Z,10.93
2019-01-10T07:05:38.616Z,10.77
2019-01-10T07:08:08.867Z,10.67
2019-01-10T07:10:58.162Z,9.97
2019-01-10T07:13:38.473Z,10.17
2019-01-10T07:16:27.845Z,11.23
2019-01-10T07:18:58.875Z,10.77
2019-01-10T07:21:30.994Z,11.67
2019-01-10T07:24:21.240Z,20.00
2019-01-10T07:27:10.482Z,12.00
2019-01-10T07:29:52.227Z,11.40
2019-01-10T07:32:32.252Z,10.97
2019-01-10T07:35:14.472Z,10.40
2019-01-10T07:37:50.612Z,11.53
2019-01-10T07:40:30.461Z,10.73
2019-01-10T07:43:12.208Z,11.33
2019-01-10T07:45:54.689Z,11.03
2019-01-10T07:48:25.268Z,12.63
2019-01-10T07:50:55.507Z,11.63
2019-01-10T07:53:44.783Z,11.33
2019-01-10T07:56:34.255Z,11.23
2019-01-10T07:59:05.497Z,13.27
2019-01-10T08:01:38.903Z,11.50
2019-01-10T08:04:09.431Z,12.30
2019-01-10T08:06:39.721Z,11.43
2019-01-10T08:09:10.359Z,10.87
2019-01-10T08:11:41.086Z,10.70
2019-01-10T08:14:11.286Z,11.33
2019-01-10T08:16:41.768Z,11.20
2019-01-10T08:19:12.817Z,11.90
2019-01-10T08:22:02.132Z,12.60
2019-01-10T08:24:51.502Z,11.90
2019-01-10T08:27:40.823Z,11.07
2019-01-10T08:30:22.485Z,11.27
2019-01-10T08:33:04.279Z,11.93
2019-01-10T08:35:46.609Z,11.83
2019-01-10T08:38:28.327Z,11.10
2019-01-10T08:41:09.982Z,10.97
2019-01-10T08:43:51.404Z,11.60
2019-01-10T08:46:32.991Z,11.37
2019-01-10T08:49:15.268Z,11.93
2019-01-10T08:51:45.636Z,11.43
2019-01-10T08:54:34.863Z,12.10
2019-01-10T08:57:16.559Z,11.43
2019-01-10T08:59:58.388Z,10.43
2019-01-10T09:02:39.879Z,11.17
2019-01-10T09:05:21.595Z,12.07
2019-01-10T09:08:01.880Z,12.03
2019-01-10T09:10:51.258Z,10.83
2019-01-10T09:13:33.835Z,11.43
2019-01-10T09:16:16.441Z,11.17
2019-01-10T09:18:46.682Z,11.90
2019-01-10T09:21:35.938Z,10.57
2019-01-10T09:24:17.913Z,10.73
2019-01-10T09:26:48.493Z,11.17
2019-01-10T09:29:37.862Z,10.40
2019-01-10T09:32:08.876Z,10.73
2019-01-10T09:34:41.458Z,10.50
2019-01-10T09:37:30.924Z,9.70
2019-01-10T09:40:01.580Z,10.20
2019-01-10T09:42:41.615Z,10.73
2019-01-10T09:45:31.193Z,11.30
2019-01-10T09:48:20.479Z,10.93
2019-01-10T09:50:50.854Z,9.70
2019-01-10T09:53:21.303Z,10.40
2019-01-10T09:55:51.542Z,9.60
2019-01-10T09:58:40.949Z,11.23
2019-01-10T10:01:11.916Z,11.53
2019-01-10T10:04:01.184Z,11.23
2019-01-10T10:06:31.972Z,11.90
2019-01-10T10:12:00.211Z,10.33
2019-01-10T10:14:30.738Z,10.23
2019-01-10T10:17:01.641Z,11.07
2019-01-10T10:19:50.859Z,10.60
2019-01-10T10:22:32.463Z,10.47
2019-01-10T10:25:03.078Z,10.30
2019-01-10T10:27:33.305Z,11.77
2019-01-10T10:30:23.244Z,11.13
2019-01-10T10:33:04.919Z,11.27
2019-01-10T10:35:46.596Z,11.17
2019-01-10T10:38:16.905Z,10.90
2019-01-10T10:40:47.100Z,10.70
2019-01-10T10:43:17.888Z,10.60
2019-01-10T10:46:07.250Z,12.90
2019-01-10T10:48:38.122Z,10.97
2019-01-10T10:51:27.411Z,11.67
2019-01-10T10:54:08.866Z,10.87
2019-01-10T10:56:50.933Z,10.93
2019-01-10T10:59:21.457Z,11.70
2019-01-10T11:04:57.872Z,10.90
2019-01-10T11:07:47.234Z,11.40
2019-01-10T11:13:21.124Z,10.87
2019-01-10T11:16:10.478Z,11.20
2019-01-10T11:18:37.500Z,10.73
2019-01-10T11:21:08.371Z,11.10
2019-01-10T11:23:57.880Z,10.73
2019-01-10T11:26:47.471Z,10.27
2019-01-10T11:29:29.155Z,10.30
2019-01-10T11:32:13.282Z,12.17
2019-01-10T11:34:52.714Z,11.87
2019-01-10T11:37:41.992Z,11.10
2019-01-10T11:40:23.975Z,12.40
2019-01-10T11:42:54.464Z,12.27
2019-01-10T11:45:46.449Z,12.23
2019-01-10T11:48:36.090Z,11.43
2019-01-10T11:51:17.544Z,10.33
2019-01-10T11:53:48.272Z,11.83
2019-01-10T11:56:37.742Z,11.43
2019-01-10T11:59:26.967Z,10.30
2019-01-10T12:01:57.684Z,11.57
2019-01-10T12:04:28.298Z,10.57
2019-01-10T12:06:58.646Z,10.90
2019-01-10T12:09:31.179Z,11.83
2019-01-10T12:12:20.851Z,11.03
2019-01-10T12:15:10.392Z,9.47
2019-01-10T12:17:52.189Z,10.03
2019-01-10T12:20:24.094Z,10.03
2019-01-10T12:22:54.608Z,11.57
2019-01-10T12:25:25.167Z,11.47
2019-01-10T12:28:17.826Z,10.97
2019-01-10T12:30:48.204Z,9.90
2019-01-10T12:33:37.784Z,11.27
2019-01-10T12:36:19.400Z,10.50
2019-01-10T12:39:00.916Z,9.47
2019-01-10T12:41:42.515Z,10.33
2019-01-10T12:44:13.166Z,10.43
2019-01-10T12:46:53.319Z,10.63
2019-01-10T12:49:24.059Z,9.47
2019-01-10T12:52:13.459Z,9.80
2019-01-10T12:55:03.450Z,8.37
2019-01-10T12:57:52.695Z,8.23
2019-01-10T13:00:42.300Z,9.00
2019-01-10T13:03:13.336Z,9.53
2019-01-10T13:05:43.828Z,10.30
2019-01-10T13:08:33.107Z,9.43
2019-01-10T13:11:04.509Z,10.07
2019-01-10T13:13:54.161Z,8.97
2019-01-10T13:16:46.642Z,9.73
2019-01-10T13:19:21.127Z,9.33
2019-01-10T13:22:02.680Z,8.43
2019-01-10T13:24:44.352Z,9.27
2019-01-10T13:27:14.873Z,8.53
2019-01-10T13:30:10.496Z,9.97
2019-01-10T13:32:52.410Z,9.10
2019-01-10T13:35:33.831Z,9.47
2019-01-10T13:38:04.989Z,8.60
2019-01-10T13:40:35.162Z,8.57
2019-01-10T13:43:24.440Z,9.60
2019-01-10T13:45:55.602Z,8.70
2019-01-10T13:48:51.506Z,8.83
2019-01-10T13:51:28.080Z,8.37
2019-01-10T13:54:10.084Z,8.63
2019-01-10T13:59:32.998Z,9.73
2019-01-10T14:02:03.193Z,10.03
2019-01-10T14:04:33.642Z,10.73
2019-01-10T14:07:05.629Z,9.67
2019-01-10T14:09:35.831Z,10.20
2019-01-10T14:12:06.187Z,10.60
2019-01-10T14:14:37.113Z,10.23
2019-01-10T14:17:07.540Z,10.00
2019-01-10T14:19:37.871Z,10.73
2019-01-10T14:22:27.143Z,9.63
2019-01-10T14:24:57.867Z,10.43
2019-01-10T14:27:30.815Z,10.57
2019-01-10T14:30:01.075Z,9.30
2019-01-10T14:32:50.520Z,10.40
2019-01-10T14:35:21.696Z,9.80
2019-01-10T14:37:52.104Z,9.03
2019-01-10T14:40:22.625Z,9.67
2019-01-10T14:48:39.872Z,10.67
2019-01-10T14:57:23.435Z,10.03
2019-01-10T15:03:00.006Z,9.43
2019-01-10T15:05:34.474Z,9.60
2019-01-10T15:08:28.217Z,8.90
2019-01-10T15:11:01.154Z,8.67
2019-01-10T15:22:08.405Z,9.63
2019-01-10T15:25:37.226Z,8.57
2019-01-10T15:28:21.442Z,8.70
2019-01-10T15:31:15.432Z,9.73
2019-01-10T15:37:10.992Z,7.60
2019-01-10T15:40:08.702Z,7.67
2019-01-10T15:43:21.232Z,7.43
2019-01-10T15:45:57.288Z,7.53
2019-01-10T15:48:48.810Z,7.77
2019-01-10T15:54:18.207Z,8.37
2019-01-10T15:57:00.517Z,8.00
2019-01-10T15:59:48.774Z,7.63
2019-01-10T16:05:24.025Z,7.13
2019-01-10T16:08:16.429Z,7.17
2019-01-10T16:11:18.651Z,6.97
2019-01-10T16:14:27.636Z,6.67
2019-01-10T16:16:59.322Z,6.13
2019-01-10T16:19:38.971Z,6.30
2019-01-10T16:22:49.380Z,5.60
2019-01-10T16:25:46.807Z,5.73
2019-01-10T16:29:08.143Z,5.90
2019-01-10T16:32:06.907Z,11.30
2019-01-10T16:34:54.162Z,8.60
2019-01-10T16:37:48.727Z,6.07
2019-01-10T16:50:34.534Z,7.80
2019-01-10T16:53:27.997Z,12.63
2019-01-10T16:59:27.304Z,9.00
2019-01-10T17:04:57.270Z,6.33
2019-01-10T17:08:11.588Z,5.70
2019-01-10T17:11:02.403Z,5.80
2019-01-10T17:17:07.340Z,5.60
2019-01-10T17:19:55.408Z,6.87
2019-01-10T17:23:14.334Z,5.83
2019-01-10T17:26:41.588Z,6.87
2019-01-10T17:29:22.339Z,7.27
2019-01-10T17:32:25.584Z,5.67
2019-01-10T17:35:19.410Z,6.40
2019-01-10T17:38:04.715Z,6.23
2019-01-10T17:49:46.357Z,5.03
2019-01-10T17:52:49.856Z,6.27
2019-01-10T17:56:11.959Z,6.10
2019-01-10T18:07:27.633Z,6.27
2019-01-10T18:19:14.205Z,6.93
2019-01-10T18:46:00.920Z,7.50
2019-01-10T18:48:54.466Z,6.70
2019-01-10T18:55:53.393Z,6.20
2019-01-10T19:11:59.350Z,6.03
2019-01-10T19:15:30.513Z,5.87
2019-01-10T19:33:36.910Z,7.03
2019-01-10T19:36:36.665Z,6.90
2019-01-10T19:42:55.756Z,9.43
2019-01-10T19:45:57.141Z,6.70
2019-01-10T19:48:47.509Z,6.23
2019-01-10T19:51:35.198Z,6.83
2019-01-10T19:54:29.197Z,6.63
2019-01-10T19:56:56.994Z,7.60
2019-01-10T19:59:32.697Z,7.83
2019-01-10T20:11:11.956Z,7.50
2019-01-10T20:13:49.024Z,7.60
2019-01-10T20:17:11.758Z,6.77
2019-01-10T20:29:19.346Z,7.63
2019-01-10T20:32:46.257Z,10.57
2019-01-10T20:41:46.384Z,7.03
2019-01-10T20:48:09.033Z,8.00
2019-01-10T20:51:12.886Z,6.80
2019-01-10T20:54:01.326Z,7.40
2019-01-10T20:59:34.880Z,6.60
2019-01-10T21:05:49.646Z,6.30
2019-01-10T21:12:07.085Z,6.07
2019-01-10T21:14:59.104Z,5.97
2019-01-10T21:17:52.551Z,6.37
2019-01-10T21:23:26.691Z,6.80
2019-01-10T21:26:08.544Z,6.70
2019-01-10T21:29:02.038Z,6.70
2019-01-10T21:32:15.298Z,6.03
2019-01-10T21:37:57.582Z,6.53
2019-01-10T21:50:19.028Z,7.97
2019-01-10T21:59:00.058Z,6.43
2019-01-10T22:01:53.734Z,6.47
2019-01-10T22:07:53.341Z,6.80
2019-01-10T22:20:12.637Z,6.50
2019-01-10T22:23:18.148Z,6.50
2019-01-10T22:26:04.257Z,6.80
2019-01-10T22:28:48.678Z,6.93
2019-01-10T22:31:36.021Z,6.77
2019-01-10T22:34:32.672Z,6.77
2019-01-10T22:37:16.358Z,7.00
2019-01-10T22:39:56.111Z,6.00
2019-01-10T22:42:54.205Z,6.07
2019-01-10T22:48:50.547Z,6.40
2019-01-10T22:51:40.378Z,6.50
2019-01-10T22:54:27.642Z,6.33
2019-01-10T22:57:09.323Z,6.43
2019-01-10T23:05:48.024Z,6.13
2019-01-10T23:08:34.459Z,5.43
2019-01-10T23:11:19.519Z,6.67
2019-01-10T23:14:12.280Z,5.90
2019-01-10T23:16:57.245Z,6.20
2019-01-10T23:22:43.030Z,6.77
2019-01-10T23:28:28.062Z,6.13
2019-01-10T23:31:13.372Z,6.57
2019-01-10T23:34:14.221Z,6.57
2019-01-10T23:36:32.656Z,6.17
2019-01-10T23:39:23.039Z,6.33
2019-01-10T23:42:12.467Z,6.67
2019-01-10T23:45:03.094Z,6.77
2019-01-10T23:47:59.563Z,6.23
2019-01-10T23:53:27.532Z,5.97
2019-01-10T23:56:09.558Z,6.70
2019-01-10T23:58:51.270Z,6.20
